Terminal Aerodrome Forecast
Issued by NWS Corpus Christi, TX

Home | Current Version | Previous Version | Text Only | Print | Product List | Glossary On
Versions: 1 2 3 4 5 6 7 8 9 10 11 12 13
000
FTUS44 KCRP 062334
TAFVCT
TAF
KVCT 062334Z 0700/0724 16016G22KT P6SM FEW030
     FM070300 15007KT P6SM BKN025
     FM070900 14006KT P6SM SCT013 BKN022 WS020/18030KT
      TEMPO 0710/0712 5SM BR BKN013
     FM071430 17016G23KT P6SM SCT035 BKN250
     FM072100 16020G28KT P6SM FEW045 SCT250=

USA.gov is the U.S. government's official web portal to all federal, state and local government web resources and services.